KMFI/MFI METAR and TAF weather

Enter ICAO airport designator
Station Type Date Time Source
KMFI METAR 2022/01/26 19:54 UTC NOAA

KMFI 261954Z AUTO 19015KT 10SM BKN022 M14/M22 A3008 RMK AO2 PRESFR SLP227 T11441217


Station Type Date Time Source
KMFI Decoded METAR 2022/01/26 19:54 UTC NOAA

MARSHFIELD MUNICIPAL AIRPORT, WI, United States (KMFI) 44-38N 90-11W 379M
Jan 26, 2022 - 02:54 PM EST / 2022.01.26 1954 UTC
Wind: from the S (190 degrees) at 17 MPH (15 KT):0
Visibility: 10 mile(s):0
Sky conditions: mostly cloudy
Temperature: 6.1 F (-14.4 C)
Windchill: -13 F (-25 C):2
Dew Point: -7.1 F (-21.7 C)
Relative Humidity: 53%
Pressure (altimeter): 30.08 in. Hg (1018 hPa)
Pressure tendency: falling rapidly
ob: KMFI 261954Z AUTO 19015KT 10SM BKN022 M14/M22 A3008 RMK AO2 PRESFR SLP227 T11441217
cycle: 20

Station Type Date Time Source
KMFI TAF UTC NOAA

Error!

Example: see airport list